KSHD

Shenandoah Valley Regional Airport

Staunton/Waynesboro/Harrisonburg, Virginia, USA
METAR KSHD 162235Z AUTO 32007KT 10SM CLR 02/M04 A3020 RMK AO2 T00221038
Observed Flight Rules
Jan-16 @ 22:35 UTC (28 minutes ago) Visual Flight Rules
Wind Visibility Clouds
320° at 7 knots 10 miles
  • Clear skies
Temperatures Readings
Current 2°C / 36°F
Dewpoint -4°C / 25°F
Humidity 65%
Altimeter 30.2" Hg
Pressure 1022.72 hPa
Elevation 366
METAR KSHD 162235Z AUTO 32007KT 10SM CLR 02/M04 A3020 RMK AO2 T00221038
Observed Flight Rules
Jan-16 @ 22:35 UTC
(28 minutes ago)
VFR
Wind Visibility
320° at 7 knots 10 miles
Clouds
  • Clear skies
Temperature Dewpoint
2°C / 36°F -4°C / 25°F
Humidity Altimeter Pressure
65% 30.2" Hg 1022.72 hPa